Time;durP1;ratioP1;P1;durP2;ratioP2;P2;SDS_P1;SDS_P2;PMS_P1;PMS_P2;Temp;Humidity;BMP_temperature;BMP_pressure;BME280_temperature;BME280_humidity;BME280_pressure;Samples;Min_cycle;Max_cycle;Signal;HPM_P1;HPM_P2
2021/11/28 00:01:52;;;;;;;3.08;2.03;;;18.00;58.40;;;;;;5072041;28;20035;-82
2021/11/28 00:04:18;;;;;;;2.90;1.65;;;18.00;58.40;;;;;;5071948;28;20032;-78
2021/11/28 00:06:56;;;;;;;2.90;1.67;;;18.00;58.40;;;;;;5071286;28;20024;-80
2021/11/28 00:09:41;;;;;;;4.18;1.75;;;17.90;58.30;;;;;;5071417;28;20047;-78
2021/11/28 00:12:43;;;;;;;2.95;1.55;;;17.90;58.30;;;;;;5071511;28;20511;-80
2021/11/28 00:15:03;;;;;;;3.17;1.95;;;17.90;58.30;;;;;;5072813;28;20028;-81
2021/11/28 00:17:28;;;;;;;3.72;1.70;;;17.90;58.30;;;;;;5091269;28;20064;-79
2021/11/28 00:19:54;;;;;;;3.88;1.55;;;17.90;58.30;;;;;;5091678;28;20063;-80
2021/11/28 00:22:20;;;;;;;2.00;1.35;;;17.90;58.30;;;;;;5091936;28;20039;-81
2021/11/28 00:24:45;;;;;;;2.72;1.17;;;17.90;58.30;;;;;;5091257;28;20052;-79
2021/11/28 00:27:11;;;;;;;3.22;1.48;;;17.90;58.30;;;;;;5073194;28;20377;-81
2021/11/28 00:29:37;;;;;;;2.88;1.27;;;17.90;58.30;;;;;;5090130;28;20099;-80
2021/11/28 00:32:03;;;;;;;3.30;1.40;;;17.90;58.30;;;;;;5071231;28;20023;-79
2021/11/28 00:34:29;;;;;;;2.95;1.55;;;17.80;58.20;;;;;;5070987;28;20032;-80
2021/11/28 00:36:54;;;;;;;2.70;1.33;;;17.80;58.20;;;;;;5071135;28;20040;-82
2021/11/28 00:39:20;;;;;;;2.25;1.27;;;17.80;58.20;;;;;;5071493;28;20036;-80
2021/11/28 00:41:46;;;;;;;2.97;1.48;;;17.80;58.20;;;;;;5071096;28;20388;-82
2021/11/28 00:44:11;;;;;;;2.45;1.42;;;17.80;58.20;;;;;;5071436;28;20332;-81
2021/11/28 00:46:37;;;;;;;2.92;1.67;;;17.80;58.20;;;;;;5073181;28;20033;-80
2021/11/28 00:49:11;;;;;;;4.28;1.52;;;17.80;58.10;;;;;;5071110;28;20043;-81
2021/11/28 00:51:47;;;;;;;3.13;1.42;;;17.80;58.10;;;;;;5070770;28;20032;-81
2021/11/28 00:54:14;;;;;;;3.38;1.50;;;17.80;58.10;;;;;;5070949;28;20028;-79
2021/11/28 00:56:40;;;;;;;3.88;1.55;;;17.80;58.10;;;;;;5070676;28;20051;-81
2021/11/28 00:59:06;;;;;;;2.75;1.50;;;17.80;58.10;;;;;;5070955;28;20013;-80
2021/11/28 01:01:33;;;;;;;2.78;1.20;;;17.80;58.10;;;;;;5086708;28;20092;-81
2021/11/28 01:04:00;;;;;;;2.05;1.15;;;17.80;58.10;;;;;;5073027;28;20024;-80
2021/11/28 01:06:25;;;;;;;3.08;1.30;;;17.70;58.10;;;;;;5090828;28;20543;-81
2021/11/28 01:08:51;;;;;;;2.20;1.13;;;17.70;58.00;;;;;;5091010;28;20095;-80
2021/11/28 01:11:17;;;;;;;2.28;1.15;;;17.70;58.00;;;;;;5091431;28;20388;-82
2021/11/28 01:13:43;;;;;;;2.38;1.25;;;17.70;58.00;;;;;;5078726;28;20102;-80
2021/11/28 01:16:09;;;;;;;3.47;1.30;;;17.70;58.00;;;;;;5083533;28;20499;-80
2021/11/28 01:18:34;;;;;;;2.65;1.00;;;17.70;58.00;;;;;;5090663;28;20020;-82
2021/11/28 01:21:01;;;;;;;3.33;1.20;;;17.70;57.90;;;;;;5090949;28;20024;-81
2021/11/28 01:23:27;;;;;;;1.80;1.00;;;17.70;58.00;;;;;;5090680;28;20076;-80
2021/11/28 01:25:52;;;;;;;1.67;1.05;;;17.70;57.90;;;;;;5090939;28;20410;-80
2021/11/28 01:28:18;;;;;;;2.17;1.27;;;17.70;58.00;;;;;;5091141;28;20020;-82
2021/11/28 01:30:44;;;;;;;2.90;1.10;;;17.70;58.00;;;;;;5080507;28;20488;-81
2021/11/28 01:33:10;;;;;;;1.98;0.93;;;17.70;57.90;;;;;;5070653;28;20021;-81
2021/11/28 01:35:35;;;;;;;2.97;1.00;;;17.70;57.90;;;;;;5066856;28;20484;-82
2021/11/28 01:38:02;;;;;;;3.00;1.10;;;17.70;57.90;;;;;;5090762;28;20098;-81
2021/11/28 01:40:28;;;;;;;2.75;1.02;;;17.60;57.80;;;;;;5092725;28;20081;-81
2021/11/28 01:43:02;;;;;;;3.08;1.17;;;17.70;57.90;;;;;;5077930;28;20044;-81
2021/11/28 01:45:30;;;;;;;3.35;1.30;;;17.70;57.80;;;;;;5080637;28;20036;-80
2021/11/28 01:47:59;;;;;;;3.15;1.00;;;17.70;57.80;;;;;;5094264;28;20529;-80
2021/11/28 01:50:27;;;;;;;3.78;1.50;;;17.70;57.90;;;;;;5094184;28;20472;-81
2021/11/28 01:52:53;;;;;;;2.10;0.93;;;17.70;57.80;;;;;;5094331;28;20031;-80
2021/11/28 01:55:23;;;;;;;2.22;1.00;;;17.70;57.80;;;;;;5094472;28;20020;-79
2021/11/28 01:57:50;;;;;;;1.27;0.88;;;17.70;57.90;;;;;;5076243;28;20043;-79
2021/11/28 02:00:20;;;;;;;2.03;1.02;;;17.70;57.80;;;;;;5088931;28;20116;-80
2021/11/28 02:02:46;;;;;;;1.77;1.00;;;17.70;57.80;;;;;;5073673;28;20031;-80
2021/11/28 02:05:15;;;;;;;2.13;0.98;;;17.70;57.80;;;;;;5073825;28;20465;-80
2021/11/28 02:07:41;;;;;;;2.15;0.85;;;17.70;57.80;;;;;;5073476;28;20032;-77
2021/11/28 02:10:07;;;;;;;2.42;1.17;;;17.70;57.80;;;;;;5073822;28;20020;-80
2021/11/28 02:12:33;;;;;;;2.22;1.13;;;17.70;57.80;;;;;;5073225;28;20396;-80
2021/11/28 02:15:00;;;;;;;1.48;0.90;;;17.70;57.90;;;;;;5076640;28;20032;-79
2021/11/28 02:17:27;;;;;;;2.25;0.90;;;17.70;57.80;;;;;;5093500;28;20535;-79
2021/11/28 02:19:53;;;;;;;1.20;0.60;;;17.70;57.80;;;;;;5093803;28;20047;-79
2021/11/28 02:22:19;;;;;;;2.40;1.00;;;17.60;57.70;;;;;;5093981;28;20043;-80
2021/11/28 02:24:45;;;;;;;1.85;0.80;;;17.60;57.70;;;;;;5075479;28;20020;-79
2021/11/28 02:27:11;;;;;;;2.65;1.05;;;17.60;57.70;;;;;;5093642;28;20024;-80
2021/11/28 02:29:42;;;;;;;1.02;0.60;;;17.60;57.70;;;;;;5093046;28;20027;-80
2021/11/28 02:32:09;;;;;;;4.70;0.88;;;17.60;57.70;;;;;;5053516;28;20024;-79
2021/11/28 02:34:35;;;;;;;1.52;0.80;;;17.60;57.70;;;;;;5053079;28;20028;-81
2021/11/28 02:37:01;;;;;;;1.88;0.60;;;17.60;57.70;;;;;;5053164;28;20029;-80
2021/11/28 02:39:27;;;;;;;1.33;0.70;;;17.60;57.70;;;;;;5053104;28;20020;-80
2021/11/28 02:41:53;;;;;;;1.50;0.70;;;17.60;57.70;;;;;;5044873;28;20036;-80
2021/11/28 02:44:18;;;;;;;1.73;0.75;;;17.60;57.70;;;;;;5073466;28;20488;-81
2021/11/28 02:46:45;;;;;;;2.50;0.90;;;17.60;57.70;;;;;;5089654;28;20036;-80
2021/11/28 02:49:11;;;;;;;1.75;0.80;;;17.60;57.70;;;;;;5093309;28;20020;-81
2021/11/28 02:51:38;;;;;;;1.35;0.73;;;17.60;57.70;;;;;;5091672;28;20422;-80
2021/11/28 02:54:06;;;;;;;2.03;0.95;;;17.60;57.70;;;;;;5093193;28;20023;-80
2021/11/28 02:56:33;;;;;;;2.50;1.02;;;17.60;57.70;;;;;;5092640;28;20065;-80
2021/11/28 02:58:59;;;;;;;1.05;0.73;;;17.60;57.70;;;;;;5093081;28;20053;-82
2021/11/28 03:01:25;;;;;;;1.55;0.60;;;17.60;57.70;;;;;;5077717;28;20499;-82
2021/11/28 03:03:52;;;;;;;1.45;0.70;;;17.60;57.70;;;;;;5072728;28;20416;-76
2021/11/28 03:06:18;;;;;;;1.23;0.68;;;17.60;57.60;;;;;;5072949;28;20020;-80
2021/11/28 03:08:43;;;;;;;2.42;0.70;;;17.60;57.70;;;;;;5072307;28;20020;-80
2021/11/28 03:11:11;;;;;;;1.55;0.50;;;17.60;57.70;;;;;;5073370;28;20408;-81
2021/11/28 03:13:43;;;;;;;1.52;0.70;;;17.60;57.60;;;;;;5072374;28;20526;-81
2021/11/28 03:16:12;;;;;;;1.00;0.50;;;17.60;57.60;;;;;;5084243;28;20085;-81
2021/11/28 03:18:38;;;;;;;1.48;0.70;;;17.60;57.60;;;;;;5092495;28;20012;-82
2021/11/28 03:21:19;;;;;;;1.05;0.68;;;17.60;57.70;;;;;;5092596;28;20472;-82
2021/11/28 03:23:46;;;;;;;2.38;0.80;;;17.50;57.60;;;;;;5073889;28;20024;-80
2021/11/28 03:26:28;;;;;;;1.52;0.70;;;17.60;57.70;;;;;;5074382;28;20107;-82
2021/11/28 03:28:57;;;;;;;1.98;1.10;;;17.60;57.70;;;;;;5091320;28;20027;-80
2021/11/28 03:31:25;;;;;;;1.00;0.60;;;17.50;57.60;;;;;;5077605;28;20519;-80
2021/11/28 03:33:54;;;;;;;1.25;0.80;;;17.50;57.60;;;;;;5072045;28;20078;-78
2021/11/28 03:36:23;;;;;;;1.73;0.57;;;17.60;57.70;;;;;;5072229;28;20024;-81
2021/11/28 03:38:50;;;;;;;2.03;0.70;;;17.50;57.60;;;;;;5072265;28;20082;-80
2021/11/28 03:41:19;;;;;;;1.08;0.52;;;17.50;57.60;;;;;;5071822;28;20031;-84
2021/11/28 03:43:45;;;;;;;2.40;0.70;;;17.50;57.60;;;;;;5071781;28;20024;-80
2021/11/28 03:46:11;;;;;;;1.23;0.50;;;17.50;57.60;;;;;;5065460;28;20032;-81
2021/11/28 03:48:37;;;;;;;1.27;0.70;;;17.50;57.60;;;;;;5091861;28;20060;-81
2021/11/28 03:51:03;;;;;;;1.42;0.60;;;17.50;57.60;;;;;;5091976;28;20016;-81
2021/11/28 03:53:29;;;;;;;1.67;0.55;;;17.60;57.70;;;;;;5091836;28;20106;-81
2021/11/28 03:55:55;;;;;;;1.85;0.90;;;17.50;57.60;;;;;;5091913;28;20111;-80
2021/11/28 03:58:21;;;;;;;1.00;0.60;;;17.50;57.60;;;;;;5092215;28;20032;-80
2021/11/28 04:00:47;;;;;;;1.27;0.70;;;17.50;57.60;;;;;;5082948;28;20025;-81
2021/11/28 04:03:13;;;;;;;1.27;0.50;;;17.50;57.60;;;;;;5071248;28;20108;-81
2021/11/28 04:05:40;;;;;;;1.45;0.60;;;17.50;57.70;;;;;;5071328;28;20028;-82
2021/11/28 04:08:06;;;;;;;2.03;0.70;;;17.50;57.60;;;;;;5071564;28;20024;-81
2021/11/28 04:10:33;;;;;;;0.98;0.50;;;17.50;57.60;;;;;;5071288;28;20385;-82
2021/11/28 04:12:58;;;;;;;2.10;0.43;;;17.50;57.60;;;;;;5053464;28;20496;-79
2021/11/28 04:15:24;;;;;;;1.52;0.70;;;17.50;57.60;;;;;;5075608;28;20106;-81
2021/11/28 04:17:50;;;;;;;1.75;0.50;;;17.50;57.60;;;;;;5073729;28;20028;-81
2021/11/28 04:20:16;;;;;;;1.98;0.60;;;17.50;57.60;;;;;;5091912;28;20099;-82
2021/11/28 04:22:42;;;;;;;1.38;0.60;;;17.50;57.70;;;;;;5091213;28;20059;-83
2021/11/28 04:25:10;;;;;;;1.95;0.80;;;17.50;57.70;;;;;;5091483;28;20433;-81
2021/11/28 04:27:37;;;;;;;0.95;0.47;;;17.50;57.70;;;;;;5072161;28;20025;-80
2021/11/28 04:30:05;;;;;;;1.58;0.52;;;17.50;57.70;;;;;;5071711;28;20538;-80
2021/11/28 04:32:31;;;;;;;1.17;0.50;;;17.50;57.70;;;;;;5071005;28;20020;-82
2021/11/28 04:34:57;;;;;;;1.83;0.50;;;17.50;57.70;;;;;;5071356;28;20081;-78
2021/11/28 04:37:22;;;;;;;1.30;0.60;;;17.50;57.70;;;;;;5070886;28;20051;-79
2021/11/28 04:39:48;;;;;;;0.60;0.43;;;17.50;57.70;;;;;;5071469;28;20103;-80
2021/11/28 04:42:15;;;;;;;2.38;0.68;;;17.50;57.70;;;;;;5071268;28;20027;-81
2021/11/28 04:44:40;;;;;;;1.42;0.70;;;17.50;57.70;;;;;;5070919;28;20063;-80
2021/11/28 04:47:06;;;;;;;1.48;0.60;;;17.50;57.60;;;;;;5071435;28;20055;-82
2021/11/28 04:49:31;;;;;;;0.85;0.47;;;17.50;57.60;;;;;;5091088;28;20438;-83
2021/11/28 04:51:57;;;;;;;1.35;0.60;;;17.50;57.60;;;;;;5091274;28;20021;-79
2021/11/28 04:54:23;;;;;;;1.48;0.68;;;17.50;57.70;;;;;;5091026;28;20028;-81
2021/11/28 04:56:49;;;;;;;2.03;0.80;;;17.40;57.60;;;;;;5091503;28;20044;-80
2021/11/28 04:59:15;;;;;;;1.77;0.73;;;17.40;57.60;;;;;;5091150;28;20020;-83
2021/11/28 05:01:41;;;;;;;2.53;0.70;;;17.40;57.60;;;;;;5074725;28;20044;-82
2021/11/28 05:04:07;;;;;;;1.48;0.57;;;17.40;57.60;;;;;;5070979;28;20056;-83
2021/11/28 05:06:33;;;;;;;1.90;0.52;;;17.50;57.60;;;;;;5070749;28;20512;-82
2021/11/28 05:08:59;;;;;;;1.13;0.60;;;17.40;57.60;;;;;;5070933;28;20480;-80
2021/11/28 05:11:24;;;;;;;1.25;0.55;;;17.40;57.60;;;;;;5052710;28;20488;-82
2021/11/28 05:13:50;;;;;;;1.70;0.77;;;17.40;57.60;;;;;;5071111;28;20028;-77
2021/11/28 05:16:16;;;;;;;1.52;0.50;;;17.40;57.60;;;;;;5086377;28;20472;-79
2021/11/28 05:18:41;;;;;;;1.00;0.65;;;17.40;57.60;;;;;;5094754;28;20032;-79
2021/11/28 05:21:07;;;;;;;0.77;0.50;;;17.50;57.70;;;;;;5076841;28;20024;-80
2021/11/28 05:23:33;;;;;;;1.77;0.50;;;17.50;57.70;;;;;;5091286;28;20044;-78
2021/11/28 05:25:58;;;;;;;2.63;0.68;;;17.40;57.60;;;;;;5074571;28;20029;-77
2021/11/28 05:28:24;;;;;;;1.75;0.50;;;17.50;57.70;;;;;;5074267;28;20511;-76
2021/11/28 05:30:50;;;;;;;1.50;0.60;;;17.40;57.60;;;;;;5082752;28;20034;-79
2021/11/28 05:33:15;;;;;;;0.80;0.47;;;17.40;57.60;;;;;;5094728;28;20494;-77
2021/11/28 05:35:41;;;;;;;1.35;0.70;;;17.40;57.60;;;;;;5094216;28;20067;-78
2021/11/28 05:38:07;;;;;;;1.27;0.60;;;17.40;57.60;;;;;;5094663;28;20032;-78
2021/11/28 05:40:32;;;;;;;1.02;0.50;;;17.50;57.60;;;;;;5094312;28;20020;-76
2021/11/28 05:42:58;;;;;;;1.80;0.70;;;17.40;57.50;;;;;;5076226;28;20039;-78
2021/11/28 05:45:25;;;;;;;1.00;0.60;;;17.40;57.50;;;;;;5072500;28;20024;-79
2021/11/28 05:47:51;;;;;;;1.13;0.70;;;17.40;57.50;;;;;;5094385;28;20028;-76
2021/11/28 05:50:19;;;;;;;0.98;0.60;;;17.40;57.50;;;;;;5094696;28;20541;-78
2021/11/28 05:52:45;;;;;;;1.27;0.60;;;17.40;57.50;;;;;;5075919;28;20161;-77
2021/11/28 05:55:12;;;;;;;1.98;0.70;;;17.40;57.50;;;;;;5094371;28;20028;-78
2021/11/28 05:57:37;;;;;;;0.82;0.50;;;17.40;57.50;;;;;;5093958;28;20152;-79
2021/11/28 06:00:10;;;;;;;1.50;0.60;;;17.40;57.50;;;;;;5074248;28;20032;-76
2021/11/28 06:02:36;;;;;;;1.85;0.82;;;17.40;57.50;;;;;;5093926;28;20519;-79
2021/11/28 06:05:03;;;;;;;1.27;0.70;;;17.40;57.50;;;;;;5075865;28;20024;-77
2021/11/28 06:07:29;;;;;;;0.60;0.40;;;17.40;57.50;;;;;;5093779;28;20028;-79
2021/11/28 06:09:55;;;;;;;1.65;0.60;;;17.40;57.50;;;;;;5094011;28;20380;-76
2021/11/28 06:12:21;;;;;;;1.23;0.57;;;17.40;57.50;;;;;;5093849;28;20028;-75
2021/11/28 06:14:47;;;;;;;1.33;0.50;;;17.40;57.50;;;;;;5094200;28;20035;-79
2021/11/28 06:17:12;;;;;;;0.73;0.47;;;17.40;57.50;;;;;;5073591;28;20115;-76
2021/11/28 06:19:38;;;;;;;1.48;0.55;;;17.40;57.50;;;;;;5073369;28;20115;-77
2021/11/28 06:22:06;;;;;;;0.90;0.68;;;17.40;57.50;;;;;;5086748;28;20108;-78
2021/11/28 06:24:32;;;;;;;1.42;0.52;;;17.40;57.50;;;;;;5093437;28;20036;-77
2021/11/28 06:26:57;;;;;;;1.48;0.63;;;17.40;57.50;;;;;;5093490;28;20027;-76
2021/11/28 06:29:23;;;;;;;1.35;0.57;;;17.30;57.40;;;;;;5093404;28;20453;-79
2021/11/28 06:31:49;;;;;;;2.33;0.50;;;17.30;57.40;;;;;;5077282;28;20025;-80
2021/11/28 06:34:14;;;;;;;0.98;0.50;;;17.40;57.50;;;;;;5073374;28;20025;-78
2021/11/28 06:36:40;;;;;;;1.45;0.60;;;17.30;57.40;;;;;;5073023;28;20410;-80
2021/11/28 06:39:06;;;;;;;1.70;0.70;;;17.30;57.40;;;;;;5077609;28;20020;-79
2021/11/28 06:41:32;;;;;;;0.85;0.50;;;17.30;57.90;;;;;;5075024;28;20028;-80
2021/11/28 06:43:57;;;;;;;1.77;0.50;;;17.30;57.40;;;;;;5093428;28;20021;-81
2021/11/28 06:46:24;;;;;;;0.75;0.40;;;17.30;57.40;;;;;;5080168;28;20429;-82
2021/11/28 06:48:50;;;;;;;1.00;0.60;;;17.30;57.40;;;;;;5073482;28;20047;-80
2021/11/28 06:51:16;;;;;;;0.90;0.50;;;17.30;57.40;;;;;;5073158;28;20548;-80
2021/11/28 06:53:41;;;;;;;1.30;0.60;;;17.30;57.40;;;;;;5072743;28;20402;-82
2021/11/28 06:56:07;;;;;;;1.20;0.65;;;17.30;57.40;;;;;;5073034;28;20477;-81
2021/11/28 06:58:35;;;;;;;1.50;0.63;;;17.40;57.40;;;;;;5092872;28;20082;-81
2021/11/28 07:01:02;;;;;;;1.25;0.60;;;17.40;57.40;;;;;;5084878;28;20107;-80
2021/11/28 07:03:27;;;;;;;1.90;0.68;;;17.40;57.40;;;;;;5072608;28;20059;-80
2021/11/28 07:05:53;;;;;;;2.05;0.65;;;17.40;57.40;;;;;;5072721;28;20060;-81
2021/11/28 07:08:19;;;;;;;1.02;0.40;;;17.40;57.40;;;;;;5072855;28;20028;-81
2021/11/28 07:10:45;;;;;;;0.80;0.40;;;17.40;57.30;;;;;;5072404;28;20029;-81
2021/11/28 07:13:11;;;;;;;1.17;0.55;;;17.40;57.30;;;;;;5072636;28;20029;-81
2021/11/28 07:15:38;;;;;;;2.15;0.73;;;17.40;57.30;;;;;;5077700;28;20061;-81
2021/11/28 07:18:05;;;;;;;1.55;0.55;;;17.40;57.30;;;;;;5092805;28;20369;-81
2021/11/28 07:20:32;;;;;;;1.08;0.60;;;17.40;57.30;;;;;;5092551;28;20395;-81
2021/11/28 07:23:02;;;;;;;0.85;0.47;;;17.50;57.20;;;;;;5077702;28;20059;-79
2021/11/28 07:25:28;;;;;;;0.80;0.40;;;17.50;57.20;;;;;;5084008;28;20024;-79
2021/11/28 07:27:56;;;;;;;0.73;0.60;;;17.50;57.20;;;;;;5081650;28;20021;-78
2021/11/28 07:30:23;;;;;;;1.52;0.68;;;17.50;57.20;;;;;;5073066;28;20051;-79
2021/11/28 07:32:49;;;;;;;1.40;0.43;;;17.50;57.20;;;;;;5070822;28;20544;-80
2021/11/28 07:35:14;;;;;;;0.60;0.32;;;17.50;57.20;;;;;;5071741;28;20028;-81
2021/11/28 07:37:40;;;;;;;0.80;0.40;;;17.50;57.10;;;;;;5052586;28;20601;-81
2021/11/28 07:40:07;;;;;;;1.15;0.60;;;17.50;57.20;;;;;;5072015;28;20036;-79
2021/11/28 07:42:32;;;;;;;0.88;0.60;;;17.60;57.20;;;;;;5091834;28;20023;-78
2021/11/28 07:44:58;;;;;;;0.73;0.40;;;17.50;57.20;;;;;;5084358;28;20025;-80
2021/11/28 07:47:24;;;;;;;0.80;0.50;;;17.60;57.20;;;;;;5070976;28;20078;-80
2021/11/28 07:49:49;;;;;;;3.05;0.52;;;17.60;57.20;;;;;;5071008;28;20050;-81
2021/11/28 07:52:15;;;;;;;0.63;0.30;;;17.60;57.20;;;;;;5071695;28;20024;-79
2021/11/28 07:54:41;;;;;;;1.17;0.47;;;17.60;57.10;;;;;;5071452;28;20024;-80
2021/11/28 07:57:06;;;;;;;0.52;0.30;;;17.60;57.10;;;;;;5078696;28;20032;-78
2021/11/28 07:59:34;;;;;;;1.27;0.47;;;17.60;57.10;;;;;;5073433;28;20454;-79
2021/11/28 08:02:00;;;;;;;0.70;0.40;;;17.60;57.10;;;;;;5091826;28;20085;-80
2021/11/28 08:04:27;;;;;;;0.40;0.30;;;17.70;57.10;;;;;;5073345;28;20051;-80
2021/11/28 08:06:52;;;;;;;0.60;0.40;;;17.70;57.10;;;;;;5073650;28;20488;-80
2021/11/28 08:09:18;;;;;;;1.38;0.50;;;17.70;57.10;;;;;;5092109;28;20078;-80
2021/11/28 08:11:44;;;;;;;1.65;0.43;;;17.70;57.10;;;;;;5091516;28;20064;-79
2021/11/28 08:14:10;;;;;;;0.57;0.30;;;17.70;57.10;;;;;;5091741;28;20024;-79
2021/11/28 08:16:36;;;;;;;0.68;0.50;;;17.70;57.00;;;;;;5091366;28;20085;-80
2021/11/28 08:19:02;;;;;;;0.60;0.30;;;17.70;57.00;;;;;;5091024;28;20031;-80
2021/11/28 08:21:27;;;;;;;0.90;0.38;;;17.70;57.00;;;;;;5091369;28;20552;-82
2021/11/28 08:23:55;;;;;;;0.90;0.55;;;17.70;57.00;;;;;;5091483;28;20024;-81
2021/11/28 08:26:21;;;;;;;1.23;0.50;;;17.70;57.00;;;;;;5091576;28;20024;-78
2021/11/28 08:28:46;;;;;;;0.60;0.40;;;17.70;57.00;;;;;;5091831;28;20032;-82
2021/11/28 08:31:12;;;;;;;1.67;0.55;;;17.70;57.00;;;;;;5091463;28;20032;-83
2021/11/28 08:33:38;;;;;;;0.80;0.30;;;17.70;57.00;;;;;;5083772;28;20619;-82
2021/11/28 08:36:04;;;;;;;0.85;0.30;;;17.70;56.90;;;;;;5071090;28;20025;-83
2021/11/28 08:38:32;;;;;;;0.75;0.50;;;17.80;57.00;;;;;;5083139;28;20028;-84
2021/11/28 08:40:58;;;;;;;1.45;0.40;;;17.80;57.00;;;;;;5071768;28;20021;-85
2021/11/28 08:43:24;;;;;;;1.45;0.40;;;17.80;57.00;;;;;;5070689;28;20048;-76
2021/11/28 08:45:50;;;;;;;0.88;0.30;;;17.80;57.10;;;;;;5072157;28;20016;-84
2021/11/28 08:48:17;;;;;;;1.02;0.40;;;17.80;57.10;;;;;;5080133;28;20377;-82
2021/11/28 08:50:44;;;;;;;0.90;0.47;;;17.90;57.20;;;;;;5075018;28;20024;-83
2021/11/28 08:53:09;;;;;;;0.52;0.30;;;17.90;57.30;;;;;;5075004;28;20028;-81
2021/11/28 08:55:36;;;;;;;0.80;0.30;;;18.10;57.30;;;;;;5075150;28;20613;-81
2021/11/28 08:58:02;;;;;;;3.30;0.40;;;18.20;57.30;;;;;;5074981;28;20403;-88
2021/11/28 09:00:28;;;;;;;1.10;0.40;;;18.20;57.40;;;;;;5083248;28;20013;-78
2021/11/28 09:02:54;;;;;;;1.30;0.60;;;18.20;57.50;;;;;;5073584;28;20119;-77
2021/11/28 09:05:20;;;;;;;0.77;0.60;;;18.30;57.50;;;;;;5074545;28;20430;-77
2021/11/28 09:07:47;;;;;;;1.60;0.70;;;18.30;57.50;;;;;;5073266;28;20027;-79
2021/11/28 09:10:15;;;;;;;1.63;0.80;;;18.40;57.50;;;;;;5074172;28;20032;-79
2021/11/28 09:12:42;;;;;;;3.35;0.70;;;18.40;57.40;;;;;;5063338;28;20025;-78
2021/11/28 09:15:08;;;;;;;1.83;0.70;;;18.30;57.40;;;;;;5073159;28;20024;-78
2021/11/28 09:17:34;;;;;;;4.25;0.60;;;18.30;57.40;;;;;;5062943;28;20464;-76
2021/11/28 09:20:06;;;;;;;2.45;0.77;;;18.30;57.40;;;;;;5073216;28;20372;-78
2021/11/28 09:24:24;;;;;;;6.07;0.85;;;18.30;57.50;;;;;;5070443;28;20027;-77
2021/11/28 09:25:20;;;;;;;1.63;0.70;;;18.30;57.60;;;;;;5054531;28;20028;-81
2021/11/28 09:27:48;;;;;;;1.73;0.70;;;18.30;57.70;;;;;;5054137;28;20025;-79
2021/11/28 09:30:15;;;;;;;2.88;0.93;;;18.30;57.70;;;;;;5054370;28;20025;-80
2021/11/28 09:32:41;;;;;;;3.10;0.80;;;18.30;57.70;;;;;;5054016;28;20491;-81
2021/11/28 09:35:07;;;;;;;1.10;0.52;;;18.30;57.70;;;;;;5054421;28;20029;-78
2021/11/28 09:37:33;;;;;;;2.00;0.60;;;18.30;57.90;;;;;;5036213;28;20091;-80
2021/11/28 09:39:59;;;;;;;6.07;0.98;;;18.40;57.80;;;;;;5059962;28;20055;-78
2021/11/28 09:42:31;;;;;;;7.72;1.88;;;18.40;57.90;;;;;;5094021;28;20111;-78
2021/11/28 09:44:59;;;;;;;7.00;1.85;;;18.50;58.60;;;;;;5094577;28;20028;-79
2021/11/28 09:47:26;;;;;;;3.95;1.65;;;18.50;58.50;;;;;;5094033;28;20032;-77
2021/11/28 09:49:56;;;;;;;2.95;1.70;;;18.60;58.70;;;;;;5093451;28;20039;-78
2021/11/28 09:52:24;;;;;;;5.93;1.48;;;18.60;58.90;;;;;;5094123;28;20472;-76
2021/11/28 09:54:55;;;;;;;5.22;1.52;;;18.60;58.70;;;;;;5094850;28;20108;-77
2021/11/28 09:57:22;;;;;;;8.10;2.00;;;18.70;59.00;;;;;;5074771;28;20082;-75
2021/11/28 09:59:49;;;;;;;9.32;1.50;;;18.70;58.80;;;;;;5073648;28;20028;-77
2021/11/28 10:02:31;;;;;;;5.68;1.83;;;18.80;58.90;;;;;;5073408;28;20025;-77
2021/11/28 10:05:01;;;;;;;7.35;2.70;;;18.70;59.00;;;;;;5072602;28;20027;-77
2021/11/28 10:07:27;;;;;;;7.30;2.15;;;18.70;59.20;;;;;;5073659;28;20074;-76
2021/11/28 10:09:53;;;;;;;4.90;1.90;;;18.70;59.30;;;;;;5073353;28;20017;-79
2021/11/28 10:12:27;;;;;;;35.17;7.10;;;18.60;59.30;;;;;;5073235;28;20064;-78
2021/11/28 10:14:56;;;;;;;31.88;6.75;;;18.70;59.90;;;;;;5073457;28;20081;-79
2021/11/28 10:17:27;;;;;;;18.83;5.38;;;18.70;60.30;;;;;;5071703;28;20155;-77
2021/11/28 10:19:53;;;;;;;16.75;4.60;;;18.70;59.60;;;;;;5072311;28;20066;-84
2021/11/28 10:22:19;;;;;;;19.42;3.70;;;18.70;60.10;;;;;;5073142;28;20040;-80
2021/11/28 10:25:03;;;;;;;12.07;4.10;;;18.70;59.10;;;;;;5073367;28;20416;-82
2021/11/28 10:27:52;;;;;;;14.50;3.72;;;18.70;59.30;;;;;;5071771;28;20032;-83
2021/11/28 10:30:27;;;;;;;11.60;3.65;;;18.70;59.40;;;;;;5072141;28;20025;-82
2021/11/28 10:32:53;;;;;;;9.88;3.90;;;18.70;59.10;;;;;;5072913;28;20020;-81
2021/11/28 10:35:20;;;;;;;11.88;4.05;;;18.70;59.40;;;;;;5072786;28;20507;-81
2021/11/28 10:37:51;;;;;;;13.55;4.72;;;18.70;59.80;;;;;;5073203;28;20033;-81
2021/11/28 10:40:26;;;;;;;11.43;4.72;;;18.70;61.20;;;;;;5073366;28;20070;-81
2021/11/28 10:43:10;;;;;;;17.17;4.22;;;18.80;61.00;;;;;;5071399;28;20489;-82
2021/11/28 10:45:39;;;;;;;20.30;3.65;;;18.90;60.60;;;;;;5053007;28;20021;-82
2021/11/28 10:48:07;;;;;;;17.55;3.65;;;18.90;59.70;;;;;;5053285;28;20120;-83
2021/11/28 10:50:38;;;;;;;16.48;3.28;;;19.00;60.00;;;;;;5071287;28;20029;-81
2021/11/28 10:53:21;;;;;;;16.98;3.90;;;19.10;59.70;;;;;;5072740;28;20016;-81
2021/11/28 10:55:47;;;;;;;22.15;3.28;;;19.10;59.50;;;;;;5072902;28;20113;-83
2021/11/28 10:58:14;;;;;;;16.08;2.50;;;19.00;59.20;;;;;;5072916;28;20561;-83
2021/11/28 11:00:41;;;;;;;10.40;2.65;;;19.00;59.20;;;;;;5070657;28;20020;-83
2021/11/28 11:03:23;;;;;;;15.40;2.63;;;19.00;59.20;;;;;;5071324;28;20094;-83
2021/11/28 11:06:08;;;;;;;7.28;2.17;;;19.00;59.20;;;;;;5072535;28;20078;-81
2021/11/28 11:08:34;;;;;;;11.80;2.40;;;19.00;59.20;;;;;;5071392;28;20043;-81
2021/11/28 11:11:07;;;;;;;10.55;2.22;;;18.90;59.00;;;;;;5072467;28;20024;-79
2021/11/28 11:13:33;;;;;;;11.32;2.90;;;;;;;;;;5071083;28;20439;-80
2021/11/28 11:15:59;;;;;;;13.10;2.00;;;18.90;58.60;;;;;;5071236;28;20050;-88
2021/11/28 11:18:25;;;;;;;17.88;2.53;;;18.90;59.60;;;;;;5070751;28;20033;-86
2021/11/28 11:21:04;;;;;;;7.05;2.30;;;18.90;59.00;;;;;;5072561;28;20078;-83
2021/11/28 11:23:42;;;;;;;14.60;1.60;;;18.90;59.00;;;;;;5071938;28;20029;-80
2021/11/28 11:26:22;;;;;;;9.15;1.90;;;18.90;59.00;;;;;;5071420;28;20026;-80
2021/11/28 11:29:10;;;;;;;12.23;1.55;;;18.90;59.00;;;;;;5071105;28;20024;-78
2021/11/28 11:31:38;;;;;;;7.70;2.22;;;18.90;59.00;;;;;;5068175;28;20028;-79
2021/11/28 11:34:23;;;;;;;8.23;1.85;;;18.90;59.00;;;;;;5071362;28;20492;-82
2021/11/28 11:36:54;;;;;;;6.78;1.60;;;18.90;59.10;;;;;;5072015;28;20044;-79
2021/11/28 11:39:20;;;;;;;9.82;2.00;;;;;;;;;;5071061;28;20497;-76
2021/11/28 11:41:46;;;;;;;14.70;2.13;;;18.90;58.70;;;;;;5071459;28;20034;-78
2021/11/28 11:44:16;;;;;;;17.23;2.17;;;18.90;59.10;;;;;;5071993;28;20031;-77
2021/11/28 11:46:45;;;;;;;15.25;2.17;;;;;;;;;;5071460;28;20032;-80
2021/11/28 11:49:12;;;;;;;6.10;1.15;;;;;;;;;;5071855;28;20017;-80
2021/11/28 11:51:38;;;;;;;7.45;1.48;;;;;;;;;;5071447;28;20021;-79
2021/11/28 11:54:05;;;;;;;6.55;1.42;;;19.20;58.90;;;;;;5071773;28;20099;-79
2021/11/28 11:56:32;;;;;;;7.88;1.63;;;19.20;59.10;;;;;;5071263;28;20021;-79
2021/11/28 11:59:10;;;;;;;7.20;1.65;;;19.30;58.90;;;;;;5071736;28;20028;-79
2021/11/28 12:01:36;;;;;;;5.10;1.25;;;19.30;58.80;;;;;;5071404;28;20024;-79
2021/11/28 12:04:02;;;;;;;7.30;1.17;;;19.40;58.70;;;;;;5070888;28;21688;-81
2021/11/28 12:06:48;;;;;;;4.78;1.25;;;19.50;58.60;;;;;;5069628;28;20503;-80
2021/11/28 12:09:25;;;;;;;3.72;1.00;;;19.50;58.60;;;;;;5069260;28;20186;-80
2021/11/28 12:12:12;;;;;;;4.38;0.90;;;19.60;58.40;;;;;;5068977;28;20025;-79
2021/11/28 12:15:16;;;;;;;3.55;1.25;;;19.70;58.30;;;;;;5069442;28;20020;-78
2021/11/28 12:17:42;;;;;;;5.93;1.27;;;19.70;58.10;;;;;;5070648;28;20048;-81
2021/11/28 12:20:09;;;;;;;3.85;1.00;;;19.80;57.90;;;;;;5071444;28;20025;-80
2021/11/28 12:22:44;;;;;;;4.22;1.20;;;19.80;57.70;;;;;;5071008;28;20021;-82
2021/11/28 12:25:35;;;;;;;7.22;1.17;;;19.90;57.70;;;;;;5053032;28;20093;-85
2021/11/28 12:28:20;;;;;;;5.28;1.17;;;19.90;57.60;;;;;;5069768;28;20040;-80
2021/11/28 12:30:58;;;;;;;3.45;0.90;;;19.90;57.50;;;;;;5059716;28;20063;-80
2021/11/28 12:33:52;;;;;;;7.10;1.17;;;20.00;57.10;;;;;;5050741;28;20112;-79
2021/11/28 12:39:04;;;;;;;5.55;0.90;;;20.00;57.10;;;;;;5061947;28;20043;-83
2021/11/28 12:44:23;;;;;;;6.55;1.75;;;20.00;57.10;;;;;;5067958;28;20024;-84
2021/11/28 12:46:51;;;;;;;6.43;1.60;;;20.00;57.10;;;;;;5070097;28;20074;-81
2021/11/28 12:49:24;;;;;;;5.47;1.23;;;20.00;57.30;;;;;;5061126;28;20027;-82
2021/11/28 12:51:50;;;;;;;3.75;1.88;;;20.00;57.30;;;;;;5071744;28;20107;-83
2021/11/28 12:54:29;;;;;;;5.60;1.27;;;20.10;57.50;;;;;;5070992;28;20499;-82
2021/11/28 12:57:20;;;;;;;3.75;1.08;;;20.10;57.00;;;;;;5060507;28;20531;-82
2021/11/28 13:00:11;;;;;;;3.30;1.05;;;20.10;57.20;;;;;;5058497;28;20485;-83